Time;durP1;ratioP1;P1;durP2;ratioP2;P2;SDS_P1;SDS_P2;PMS_P1;PMS_P2;Temp;Humidity;BMP_temperature;BMP_pressure;BME280_temperature;BME280_humidity;BME280_pressure;Samples;Min_cycle;Max_cycle;Signal;HPM_P1;HPM_P2
2024/03/05 00:00:14;;;;;;;17.67;11.00;;;7.10;99.90;;;;;;5018975;28;20211;-60
2024/03/05 00:02:42;;;;;;;19.00;11.43;;;7.00;99.90;;;;;;5025010;28;20255;-60
2024/03/05 00:05:09;;;;;;;20.43;10.80;;;7.10;99.90;;;;;;5020627;28;20980;-60
2024/03/05 00:07:38;;;;;;;22.50;12.30;;;7.10;99.90;;;;;;5018276;28;20529;-61
2024/03/05 00:10:03;;;;;;;19.57;11.67;;;7.10;99.90;;;;;;5019553;28;20431;-59
2024/03/05 00:12:30;;;;;;;26.90;12.97;;;7.10;99.90;;;;;;5025231;28;20425;-61
2024/03/05 00:14:56;;;;;;;21.07;11.30;;;7.00;99.90;;;;;;5020253;28;20191;-60
2024/03/05 00:17:26;;;;;;;22.93;11.97;;;7.10;99.90;;;;;;5028313;28;20492;-60
2024/03/05 00:19:52;;;;;;;19.47;10.83;;;7.00;99.90;;;;;;5021003;28;20941;-61
2024/03/05 00:22:21;;;;;;;18.63;10.70;;;7.10;99.90;;;;;;5023317;28;20434;-60
2024/03/05 00:24:46;;;;;;;20.40;11.63;;;7.10;99.90;;;;;;5020505;28;20449;-60
2024/03/05 00:27:13;;;;;;;20.63;10.70;;;7.00;99.90;;;;;;5021950;28;21071;-60
2024/03/05 00:29:40;;;;;;;19.03;11.90;;;7.00;99.90;;;;;;5025011;28;20615;-60
2024/03/05 00:32:06;;;;;;;21.57;12.13;;;7.00;99.90;;;;;;5040209;28;20445;-61
2024/03/05 00:34:32;;;;;;;20.67;11.80;;;7.00;99.90;;;;;;5024606;28;20487;-61
2024/03/05 00:36:58;;;;;;;26.13;14.00;;;7.00;99.90;;;;;;5026550;28;20439;-61
2024/03/05 00:39:23;;;;;;;29.87;15.10;;;7.00;99.90;;;;;;5019395;28;20286;-61
2024/03/05 00:41:49;;;;;;;23.03;13.17;;;7.00;99.90;;;;;;5023494;28;20690;-60
2024/03/05 00:44:16;;;;;;;25.53;14.10;;;7.00;99.90;;;;;;5028872;28;20195;-59
2024/03/05 00:46:42;;;;;;;32.63;15.07;;;7.00;99.90;;;;;;5021428;28;20248;-60
2024/03/05 00:49:08;;;;;;;25.23;13.57;;;7.00;99.90;;;;;;5022728;28;20430;-60
2024/03/05 00:51:34;;;;;;;25.17;13.30;;;7.00;99.90;;;;;;5022622;28;20508;-60
2024/03/05 00:54:01;;;;;;;27.00;13.70;;;7.00;99.90;;;;;;5023746;28;20237;-60
2024/03/05 00:56:26;;;;;;;36.33;16.07;;;7.00;99.90;;;;;;5020171;28;20438;-61
2024/03/05 00:58:52;;;;;;;32.33;15.93;;;7.00;99.90;;;;;;5029739;28;20512;-60
2024/03/05 01:01:18;;;;;;;37.30;15.97;;;7.00;99.90;;;;;;5020500;28;20582;-60
2024/03/05 01:03:43;;;;;;;25.53;14.30;;;7.00;99.90;;;;;;5027763;28;20191;-59
2024/03/05 01:06:09;;;;;;;27.03;14.70;;;7.00;99.90;;;;;;5029472;28;20196;-61
2024/03/05 01:08:34;;;;;;;26.73;14.30;;;7.00;99.90;;;;;;5020915;28;20190;-60
2024/03/05 01:11:01;;;;;;;32.77;15.20;;;7.00;99.90;;;;;;5021635;28;20180;-59
2024/03/05 01:13:27;;;;;;;27.33;14.10;;;7.00;99.90;;;;;;5023767;28;20203;-60
2024/03/05 01:15:52;;;;;;;33.10;14.73;;;7.00;99.90;;;;;;5021035;28;20959;-60
2024/03/05 01:18:18;;;;;;;28.23;15.50;;;7.00;99.90;;;;;;5025998;28;20194;-60
2024/03/05 01:20:44;;;;;;;26.47;14.63;;;7.00;99.90;;;;;;5021922;28;20271;-59
2024/03/05 01:23:10;;;;;;;28.40;13.80;;;7.00;99.90;;;;;;5029605;28;20172;-60
2024/03/05 01:25:37;;;;;;;27.80;13.83;;;7.00;99.90;;;;;;5021825;28;20253;-60
2024/03/05 01:28:04;;;;;;;29.23;14.87;;;7.00;99.90;;;;;;5021748;28;20447;-60
2024/03/05 01:30:29;;;;;;;31.40;14.43;;;7.00;99.90;;;;;;5025580;28;20434;-61
2024/03/05 01:32:57;;;;;;;32.47;13.33;;;7.00;99.90;;;;;;5026617;28;20588;-60
2024/03/05 01:35:22;;;;;;;29.87;14.23;;;6.90;99.90;;;;;;5018813;28;20200;-60
2024/03/05 01:37:48;;;;;;;24.97;13.47;;;6.90;99.90;;;;;;5020025;28;20458;-59
2024/03/05 01:40:14;;;;;;;25.23;13.00;;;6.90;99.90;;;;;;5022735;28;20310;-61
2024/03/05 01:42:41;;;;;;;26.03;14.40;;;6.90;99.90;;;;;;5020218;28;20175;-61
2024/03/05 01:45:08;;;;;;;25.00;12.90;;;6.90;99.90;;;;;;5023993;28;20504;-60
2024/03/05 01:47:34;;;;;;;26.90;14.50;;;6.90;99.90;;;;;;5017839;28;20427;-60
2024/03/05 01:50:02;;;;;;;28.13;14.23;;;6.90;99.90;;;;;;5023272;28;20402;-60
2024/03/05 01:52:28;;;;;;;27.30;13.83;;;6.80;99.90;;;;;;5024266;28;20420;-60
2024/03/05 01:54:58;;;;;;;30.20;14.67;;;6.80;99.90;;;;;;5024321;28;20915;-60
2024/03/05 01:57:26;;;;;;;31.10;13.90;;;6.80;99.90;;;;;;5020305;28;20494;-61
2024/03/05 01:59:52;;;;;;;32.10;14.93;;;6.80;99.90;;;;;;5024648;28;20847;-58
2024/03/05 02:02:17;;;;;;;32.83;14.63;;;6.80;99.90;;;;;;5027779;28;20430;-60
2024/03/05 02:04:44;;;;;;;29.97;15.47;;;6.80;99.90;;;;;;5027387;28;20207;-60
2024/03/05 02:07:10;;;;;;;28.47;14.90;;;6.80;99.90;;;;;;5029956;28;20191;-60
2024/03/05 02:09:36;;;;;;;31.03;14.90;;;6.80;99.90;;;;;;5028895;28;20823;-60
2024/03/05 02:12:02;;;;;;;32.10;13.73;;;6.80;99.90;;;;;;5031474;28;20233;-60
2024/03/05 02:14:28;;;;;;;30.53;14.23;;;6.80;99.90;;;;;;5029210;28;20881;-60
2024/03/05 02:16:59;;;;;;;31.03;15.30;;;6.80;99.90;;;;;;5023331;28;20180;-60
2024/03/05 02:19:24;;;;;;;29.73;15.17;;;6.80;99.90;;;;;;5032648;28;20705;-60
2024/03/05 02:22:02;;;;;;;26.70;13.87;;;6.80;99.90;;;;;;5024589;28;20429;-60
2024/03/05 02:24:28;;;;;;;24.63;13.10;;;6.80;99.90;;;;;;5026194;28;20199;-60
2024/03/05 02:26:54;;;;;;;28.00;13.60;;;6.80;99.90;;;;;;5025163;28;20434;-60
2024/03/05 02:29:20;;;;;;;25.57;13.60;;;6.80;99.90;;;;;;5025885;28;20426;-61
2024/03/05 02:31:45;;;;;;;26.90;13.60;;;6.80;99.90;;;;;;5023507;28;20203;-60
2024/03/05 02:34:11;;;;;;;27.60;12.57;;;6.80;99.90;;;;;;5024816;28;20203;-60
2024/03/05 02:36:37;;;;;;;29.13;13.27;;;6.80;99.90;;;;;;5027682;28;20228;-60
2024/03/05 02:39:04;;;;;;;31.20;14.33;;;6.80;99.90;;;;;;5026492;28;20274;-60
2024/03/05 02:41:30;;;;;;;27.33;13.50;;;6.80;99.90;;;;;;5022848;28;20425;-61
2024/03/05 02:43:56;;;;;;;34.17;14.70;;;6.80;99.90;;;;;;5042882;28;20465;-60
2024/03/05 02:46:22;;;;;;;23.30;12.57;;;6.80;99.90;;;;;;5018716;28;20277;-60
2024/03/05 02:48:48;;;;;;;26.10;13.40;;;6.80;99.90;;;;;;5023664;28;20808;-59
2024/03/05 02:51:14;;;;;;;26.27;13.80;;;6.80;99.90;;;;;;5022032;28;20435;-60
2024/03/05 02:53:39;;;;;;;24.97;13.30;;;6.80;99.90;;;;;;5025948;28;20200;-60
2024/03/05 02:56:06;;;;;;;28.30;14.33;;;6.80;99.90;;;;;;5028876;28;20489;-59
2024/03/05 02:58:31;;;;;;;32.73;14.20;;;6.80;99.90;;;;;;5025466;28;20200;-61
2024/03/05 03:00:57;;;;;;;32.53;16.33;;;6.80;99.90;;;;;;5027030;28;21046;-59
2024/03/05 03:03:22;;;;;;;31.50;15.67;;;6.80;99.90;;;;;;5024349;28;20683;-60
2024/03/05 03:05:48;;;;;;;35.80;15.17;;;6.80;99.90;;;;;;5020925;28;20243;-59
2024/03/05 03:08:16;;;;;;;31.57;14.97;;;6.80;99.90;;;;;;5025289;28;20183;-59
2024/03/05 03:10:42;;;;;;;26.00;13.80;;;6.80;99.90;;;;;;5027773;28;20800;-60
2024/03/05 03:13:08;;;;;;;30.53;14.70;;;6.80;99.90;;;;;;5021550;28;20449;-60
2024/03/05 03:15:34;;;;;;;44.43;16.03;;;6.80;99.90;;;;;;5022133;28;20211;-59
2024/03/05 03:17:59;;;;;;;28.67;14.43;;;6.80;99.90;;;;;;5026501;28;20458;-60
2024/03/05 03:20:25;;;;;;;28.20;13.30;;;6.80;99.90;;;;;;5022830;28;20248;-60
2024/03/05 03:22:51;;;;;;;25.93;13.27;;;6.80;99.90;;;;;;5030269;28;20191;-60
2024/03/05 03:25:17;;;;;;;25.07;13.30;;;6.80;99.90;;;;;;5026820;28;20196;-60
2024/03/05 03:27:42;;;;;;;30.73;14.07;;;6.80;99.90;;;;;;5030915;28;20413;-61
2024/03/05 03:30:09;;;;;;;22.23;12.30;;;6.70;99.90;;;;;;5027152;28;20897;-60
2024/03/05 03:32:35;;;;;;;26.87;13.10;;;6.70;99.90;;;;;;5024008;28;20192;-60
2024/03/05 03:35:04;;;;;;;25.17;12.80;;;6.70;99.90;;;;;;5027886;28;20949;-60
2024/03/05 03:37:29;;;;;;;24.70;12.60;;;6.70;99.90;;;;;;5025594;28;20184;-60
2024/03/05 03:39:55;;;;;;;28.10;12.43;;;6.70;99.90;;;;;;5031580;28;20429;-59
2024/03/05 03:42:22;;;;;;;25.73;12.07;;;6.70;99.90;;;;;;5027976;28;20262;-60
2024/03/05 03:44:48;;;;;;;23.37;12.10;;;6.70;99.90;;;;;;5031471;28;20207;-59
2024/03/05 03:47:13;;;;;;;22.37;11.53;;;6.70;99.90;;;;;;5027627;28;20430;-60
2024/03/05 03:49:48;;;;;;;22.37;12.53;;;6.60;99.90;;;;;;5024338;28;20275;-61
2024/03/05 03:52:14;;;;;;;22.57;11.90;;;6.60;99.90;;;;;;5024555;28;20302;-60
2024/03/05 03:54:40;;;;;;;23.93;12.60;;;6.60;99.90;;;;;;5030431;28;20441;-60
2024/03/05 03:57:07;;;;;;;21.77;12.43;;;6.60;99.90;;;;;;5021107;28;20565;-60
2024/03/05 03:59:33;;;;;;;20.27;13.00;;;6.60;99.90;;;;;;5026028;28;20588;-60
2024/03/05 04:01:59;;;;;;;25.53;12.90;;;6.60;99.90;;;;;;5026836;28;20438;-60
2024/03/05 04:04:24;;;;;;;22.70;13.13;;;6.50;99.90;;;;;;5026349;28;20458;-60
2024/03/05 04:06:50;;;;;;;29.97;13.70;;;6.50;99.90;;;;;;5020552;28;20446;-59
2024/03/05 04:09:16;;;;;;;34.10;14.43;;;6.50;99.90;;;;;;5022626;28;20259;-60
2024/03/05 04:11:42;;;;;;;26.23;14.33;;;6.50;99.90;;;;;;5032637;28;20167;-60
2024/03/05 04:14:08;;;;;;;31.13;14.90;;;6.50;99.90;;;;;;5030766;28;20541;-61
2024/03/05 04:16:34;;;;;;;23.70;13.50;;;6.50;99.90;;;;;;5021953;28;20176;-59
2024/03/05 04:19:00;;;;;;;24.50;13.37;;;6.50;99.90;;;;;;5026783;28;20458;-60
2024/03/05 04:21:26;;;;;;;28.53;14.00;;;6.50;99.90;;;;;;5023854;28;20179;-60
2024/03/05 04:23:52;;;;;;;27.63;13.63;;;6.50;99.90;;;;;;5026526;28;20514;-60
2024/03/05 04:26:23;;;;;;;31.77;15.00;;;6.50;99.90;;;;;;5040679;28;20426;-60
2024/03/05 04:28:54;;;;;;;28.87;14.37;;;6.50;99.90;;;;;;5018301;28;20438;-58
2024/03/05 04:31:22;;;;;;;36.97;16.53;;;6.50;99.90;;;;;;5027317;28;20522;-60
2024/03/05 04:33:49;;;;;;;36.40;16.10;;;6.40;99.90;;;;;;5024762;28;20541;-59
2024/03/05 04:36:15;;;;;;;32.30;16.33;;;6.40;99.90;;;;;;5040623;28;20423;-60
2024/03/05 04:38:42;;;;;;;30.73;15.30;;;6.40;99.90;;;;;;5021635;28;20490;-61
2024/03/05 04:41:09;;;;;;;28.90;14.83;;;6.50;99.90;;;;;;5019404;28;20431;-60
2024/03/05 04:43:35;;;;;;;25.60;13.80;;;6.40;99.90;;;;;;5024182;28;20435;-61
2024/03/05 04:46:01;;;;;;;31.17;14.80;;;6.50;99.90;;;;;;5020870;28;20434;-60
2024/03/05 04:48:26;;;;;;;28.20;13.90;;;6.50;99.90;;;;;;5024197;28;20435;-60
2024/03/05 04:50:54;;;;;;;28.30;15.40;;;6.50;99.90;;;;;;5024188;28;20259;-60
2024/03/05 04:53:19;;;;;;;33.60;15.83;;;6.50;99.90;;;;;;5024813;28;20175;-58
2024/03/05 04:55:45;;;;;;;30.30;15.03;;;6.40;99.90;;;;;;5027180;28;20449;-60
2024/03/05 04:58:11;;;;;;;31.20;15.67;;;6.40;99.90;;;;;;5021968;28;20199;-60
2024/03/05 05:00:37;;;;;;;31.67;16.33;;;6.50;99.90;;;;;;5025050;28;20426;-60
2024/03/05 05:03:04;;;;;;;43.13;18.97;;;6.40;99.90;;;;;;5025710;28;20325;-60
2024/03/05 05:05:31;;;;;;;37.37;18.53;;;6.40;99.90;;;;;;5019449;28;20454;-57
2024/03/05 05:07:59;;;;;;;31.40;14.90;;;6.40;99.90;;;;;;5024113;28;20469;-58
2024/03/05 05:10:25;;;;;;;43.77;17.73;;;6.40;99.90;;;;;;5021425;28;20964;-58
2024/03/05 05:12:51;;;;;;;35.23;17.67;;;6.40;99.90;;;;;;5025993;28;20425;-59
2024/03/05 05:15:16;;;;;;;35.43;16.77;;;6.40;99.90;;;;;;5031415;28;20249;-60
2024/03/05 05:17:44;;;;;;;35.60;16.60;;;6.40;99.90;;;;;;5022906;28;20175;-59
2024/03/05 05:20:10;;;;;;;34.50;16.80;;;6.40;99.90;;;;;;5021778;28;20176;-60
2024/03/05 05:22:41;;;;;;;37.37;16.60;;;6.40;99.90;;;;;;5023228;28;20445;-60
2024/03/05 05:25:08;;;;;;;32.57;16.47;;;6.40;99.90;;;;;;5028005;28;21055;-60
2024/03/05 05:27:37;;;;;;;33.23;15.60;;;6.40;99.90;;;;;;5020450;28;21118;-60
2024/03/05 05:30:04;;;;;;;30.70;15.23;;;6.40;99.90;;;;;;5016036;28;20418;-60
2024/03/05 05:32:29;;;;;;;27.67;14.93;;;6.40;99.90;;;;;;5019041;28;20462;-61
2024/03/05 05:34:55;;;;;;;29.70;13.50;;;6.40;99.90;;;;;;5022967;28;20494;-61
2024/03/05 05:37:20;;;;;;;32.83;14.33;;;6.40;99.90;;;;;;5013426;28;20199;-62
2024/03/05 05:39:46;;;;;;;31.83;15.00;;;6.40;99.90;;;;;;5017011;28;20831;-63
2024/03/05 05:42:14;;;;;;;29.67;15.60;;;6.40;99.90;;;;;;5020667;28;20183;-60
2024/03/05 05:44:40;;;;;;;30.50;15.30;;;6.40;99.90;;;;;;5018096;28;20447;-59
2024/03/05 05:47:10;;;;;;;30.27;14.83;;;6.40;99.90;;;;;;5019475;28;21014;-59
2024/03/05 05:49:36;;;;;;;31.93;16.33;;;6.40;99.90;;;;;;5018775;28;20423;-60
2024/03/05 05:52:03;;;;;;;31.40;15.80;;;6.40;99.90;;;;;;5022735;28;20433;-60
2024/03/05 05:54:29;;;;;;;31.40;16.37;;;6.40;99.90;;;;;;5020970;28;21004;-60
2024/03/05 05:56:55;;;;;;;33.17;16.17;;;6.40;99.90;;;;;;5023921;28;20492;-58
2024/03/05 05:59:21;;;;;;;35.10;16.10;;;6.40;99.90;;;;;;5021162;28;20461;-60
2024/03/05 06:01:46;;;;;;;35.97;17.10;;;6.40;99.90;;;;;;5024146;28;20657;-60
2024/03/05 06:04:15;;;;;;;34.63;15.50;;;6.40;99.90;;;;;;5018981;28;20196;-61
2024/03/05 06:06:40;;;;;;;37.13;16.00;;;6.40;99.90;;;;;;5024525;28;20311;-58
2024/03/05 06:09:09;;;;;;;46.53;16.57;;;6.40;99.90;;;;;;5023526;28;20525;-58
2024/03/05 06:11:36;;;;;;;32.00;16.20;;;6.40;99.90;;;;;;5017224;28;20191;-60
2024/03/05 06:14:02;;;;;;;37.90;16.50;;;6.30;99.90;;;;;;5027973;28;20427;-60
2024/03/05 06:16:29;;;;;;;29.47;16.43;;;6.30;99.90;;;;;;5021668;28;20421;-59
2024/03/05 06:18:55;;;;;;;37.40;17.10;;;6.30;99.90;;;;;;5023316;28;20458;-59
2024/03/05 06:21:21;;;;;;;45.37;17.90;;;6.30;99.90;;;;;;5023459;28;20446;-60
2024/03/05 06:23:47;;;;;;;36.03;17.70;;;6.30;99.90;;;;;;5024045;28;20446;-64
2024/03/05 06:26:13;;;;;;;36.00;17.00;;;6.30;99.90;;;;;;5028433;28;20426;-59
2024/03/05 06:28:39;;;;;;;34.00;16.60;;;6.30;99.90;;;;;;5023945;28;20184;-60
2024/03/05 06:31:04;;;;;;;29.70;16.17;;;6.30;99.90;;;;;;5021978;28;20694;-60
2024/03/05 06:33:30;;;;;;;36.00;17.20;;;6.30;99.90;;;;;;5024469;28;20186;-60
2024/03/05 06:35:58;;;;;;;33.63;17.20;;;6.40;99.90;;;;;;5025801;28;20565;-61
2024/03/05 06:38:24;;;;;;;42.30;20.20;;;6.40;99.90;;;;;;5019223;28;20500;-60
2024/03/05 06:40:50;;;;;;;37.70;17.43;;;6.40;99.90;;;;;;5018354;28;20501;-61
2024/03/05 06:43:21;;;;;;;39.20;16.90;;;6.40;99.90;;;;;;5017988;28;20569;-60
2024/03/05 06:45:46;;;;;;;33.37;17.30;;;6.40;99.90;;;;;;5041495;28;20426;-60
2024/03/05 06:48:18;;;;;;;36.67;17.80;;;6.40;99.90;;;;;;5029084;28;20456;-60
2024/03/05 06:50:47;;;;;;;35.33;16.83;;;6.50;99.90;;;;;;5029478;28;20662;-60
2024/03/05 06:58:44;;;;;;;35.63;17.40;;;6.50;99.90;;;;;;5025313;28;20497;-60
2024/03/05 07:01:11;;;;;;;32.37;17.60;;;6.50;99.90;;;;;;5026484;28;20423;-59
2024/03/05 07:03:38;;;;;;;36.33;19.10;;;6.50;99.90;;;;;;5025844;28;20454;-60
2024/03/05 07:08:42;;;;;;;33.17;16.60;;;6.50;99.90;;;;;;4984312;28;20471;-56
2024/03/05 07:11:10;;;;;;;29.07;15.00;;;6.60;99.90;;;;;;4987218;28;20521;-55
2024/03/05 07:13:40;;;;;;;27.47;15.13;;;6.60;99.90;;;;;;4987711;28;20822;-58
2024/03/05 07:16:09;;;;;;;26.50;15.67;;;6.60;99.90;;;;;;4982367;28;20452;-58
2024/03/05 07:18:37;;;;;;;30.70;15.23;;;6.60;99.90;;;;;;4968137;28;21026;-57
2024/03/05 07:21:09;;;;;;;31.43;15.50;;;6.60;99.90;;;;;;4970089;28;20904;-59
2024/03/05 07:23:35;;;;;;;30.30;16.40;;;6.60;99.90;;;;;;4963362;28;20833;-58
2024/03/05 07:26:00;;;;;;;30.10;15.50;;;6.60;99.90;;;;;;4969565;28;20430;-58
2024/03/05 07:28:26;;;;;;;35.33;16.23;;;6.70;99.90;;;;;;4968914;28;20272;-54
2024/03/05 07:30:52;;;;;;;33.80;15.57;;;6.70;99.90;;;;;;4967530;28;20278;-56
2024/03/05 07:33:19;;;;;;;27.17;14.97;;;6.70;99.90;;;;;;4965564;28;20634;-55
2024/03/05 07:35:46;;;;;;;32.73;15.53;;;6.80;99.90;;;;;;4968665;28;20448;-58
2024/03/05 07:38:15;;;;;;;28.07;15.20;;;6.80;99.90;;;;;;4965374;28;20519;-59
2024/03/05 07:40:47;;;;;;;31.77;15.30;;;6.80;99.90;;;;;;4965204;28;20851;-57
2024/03/05 07:43:13;;;;;;;25.03;14.73;;;6.90;99.90;;;;;;4968607;28;20441;-58
2024/03/05 07:45:39;;;;;;;27.73;14.83;;;6.90;99.90;;;;;;4969644;28;20562;-58
2024/03/05 07:48:06;;;;;;;26.40;13.83;;;6.90;99.90;;;;;;4967715;28;20884;-59
2024/03/05 07:50:32;;;;;;;24.60;14.60;;;6.90;99.90;;;;;;4968703;28;20807;-60
2024/03/05 07:52:58;;;;;;;28.00;14.47;;;6.90;99.90;;;;;;4969779;28;20425;-58
2024/03/05 07:55:24;;;;;;;22.37;13.40;;;6.90;99.90;;;;;;4969606;28;20181;-55
2024/03/05 07:57:52;;;;;;;25.57;13.40;;;6.90;99.90;;;;;;4963547;28;20257;-59
2024/03/05 08:00:23;;;;;;;24.03;12.93;;;6.90;99.90;;;;;;4967360;28;20426;-58
2024/03/05 08:02:50;;;;;;;25.27;13.90;;;7.00;99.90;;;;;;4972221;28;20413;-56
2024/03/05 08:05:18;;;;;;;22.50;12.30;;;7.00;99.90;;;;;;4969914;28;20429;-58
2024/03/05 08:07:45;;;;;;;20.80;11.23;;;7.00;99.90;;;;;;4963464;28;20462;-57
2024/03/05 08:10:12;;;;;;;25.97;12.57;;;7.00;99.90;;;;;;4968856;28;20844;-58
2024/03/05 08:12:44;;;;;;;19.60;11.20;;;7.00;99.90;;;;;;4966927;28;20894;-57
2024/03/05 08:15:15;;;;;;;27.30;12.57;;;7.00;99.90;;;;;;4966786;28;20803;-57
2024/03/05 08:17:45;;;;;;;26.80;12.00;;;7.00;99.90;;;;;;4968393;28;20547;-60
2024/03/05 08:20:12;;;;;;;20.80;12.27;;;7.00;99.90;;;;;;4969835;28;20426;-58
2024/03/05 08:22:39;;;;;;;25.57;12.43;;;7.00;99.90;;;;;;4965427;28;20484;-55
2024/03/05 08:25:12;;;;;;;22.10;11.30;;;7.00;99.90;;;;;;4966191;28;20476;-55
2024/03/05 08:27:42;;;;;;;20.10;10.67;;;7.00;99.90;;;;;;4968309;28;20436;-55
2024/03/05 08:30:10;;;;;;;22.60;11.47;;;7.00;99.90;;;;;;4966266;28;20452;-59
2024/03/05 08:32:39;;;;;;;32.70;11.63;;;7.00;99.90;;;;;;4963868;28;20444;-58
2024/03/05 08:35:06;;;;;;;29.03;10.60;;;7.00;99.90;;;;;;4967070;28;20456;-56
2024/03/05 08:37:32;;;;;;;25.43;10.50;;;7.00;99.90;;;;;;4966854;28;20453;-59
2024/03/05 08:39:58;;;;;;;20.13;9.83;;;7.00;99.90;;;;;;4971340;28;20988;-58
2024/03/05 08:42:23;;;;;;;16.87;9.90;;;6.90;99.90;;;;;;4968035;28;20269;-59
2024/03/05 08:44:49;;;;;;;15.73;9.47;;;6.80;99.90;;;;;;4968304;28;20410;-54
2024/03/05 08:47:15;;;;;;;15.03;9.00;;;6.70;99.90;;;;;;4961389;28;20696;-58
2024/03/05 08:49:40;;;;;;;14.90;8.97;;;6.70;99.90;;;;;;4968856;28;20261;-56
2024/03/05 08:52:06;;;;;;;17.47;8.50;;;6.70;99.90;;;;;;4961805;28;20696;-59
2024/03/05 08:54:32;;;;;;;16.80;9.60;;;6.70;99.90;;;;;;4965576;28;20182;-58
2024/03/05 08:56:58;;;;;;;15.83;9.67;;;6.70;99.90;;;;;;4968334;28;20976;-58
2024/03/05 08:59:25;;;;;;;13.90;7.50;;;6.70;99.90;;;;;;4965431;28;20465;-59
2024/03/05 09:01:53;;;;;;;11.50;8.03;;;6.70;99.90;;;;;;4962030;28;20204;-58
2024/03/05 09:04:21;;;;;;;16.07;8.87;;;6.70;99.90;;;;;;4966325;28;20434;-56
2024/03/05 09:06:49;;;;;;;14.87;9.00;;;6.70;99.90;;;;;;4965653;28;20467;-57
2024/03/05 09:09:15;;;;;;;17.00;7.57;;;6.70;99.90;;;;;;4967829;28;20441;-57
2024/03/05 09:11:41;;;;;;;13.27;7.47;;;6.60;99.90;;;;;;4964363;28;20548;-55
2024/03/05 09:14:07;;;;;;;17.57;9.17;;;6.70;99.90;;;;;;4963487;28;20528;-61
2024/03/05 09:16:37;;;;;;;12.10;7.33;;;6.70;99.90;;;;;;4966793;28;20211;-56
2024/03/05 09:19:06;;;;;;;19.83;7.90;;;6.70;99.90;;;;;;4959857;28;20556;-58
2024/03/05 09:21:36;;;;;;;16.70;8.93;;;6.70;99.90;;;;;;4967273;28;20508;-54
2024/03/05 09:24:06;;;;;;;18.07;7.70;;;6.80;99.90;;;;;;4966575;28;20476;-56
2024/03/05 09:26:33;;;;;;;9.37;5.90;;;6.80;99.90;;;;;;4965461;28;20445;-59
2024/03/05 09:28:59;;;;;;;10.27;4.70;;;6.90;99.90;;;;;;4967667;28;20795;-60
2024/03/05 09:31:24;;;;;;;8.53;4.63;;;6.90;99.90;;;;;;4966204;28;20421;-54
2024/03/05 09:33:50;;;;;;;10.43;5.17;;;6.80;99.90;;;;;;4967229;28;20712;-54
2024/03/05 09:36:15;;;;;;;5.80;4.57;;;6.70;99.90;;;;;;4965835;28;20170;-57
2024/03/05 09:38:41;;;;;;;6.63;4.10;;;6.70;99.90;;;;;;4966347;28;20205;-56
2024/03/05 09:41:08;;;;;;;6.80;4.43;;;6.70;99.90;;;;;;4966191;28;20657;-59
2024/03/05 09:43:39;;;;;;;6.70;4.30;;;6.70;99.90;;;;;;4966258;28;20302;-55
2024/03/05 09:46:06;;;;;;;6.40;4.00;;;6.80;99.90;;;;;;4965456;28;20418;-58
2024/03/05 09:48:38;;;;;;;9.37;4.50;;;6.90;99.90;;;;;;4959999;28;20465;-56
2024/03/05 09:51:09;;;;;;;6.30;3.67;;;6.90;99.90;;;;;;4961682;28;20444;-57
2024/03/05 09:53:35;;;;;;;6.57;4.23;;;7.00;99.90;;;;;;4965282;28;20437;-55
2024/03/05 09:56:02;;;;;;;5.87;4.33;;;7.00;99.90;;;;;;4961882;28;20437;-56
2024/03/05 09:58:40;;;;;;;7.77;5.00;;;7.00;99.90;;;;;;4961992;28;20464;-55
2024/03/05 10:01:08;;;;;;;9.20;4.13;;;7.10;99.90;;;;;;4962742;28;20463;-57
2024/03/05 10:03:35;;;;;;;9.43;3.43;;;7.20;99.90;;;;;;4960956;28;20436;-58
2024/03/05 10:06:02;;;;;;;6.07;3.93;;;7.20;99.90;;;;;;4958890;28;20434;-53
2024/03/05 10:08:28;;;;;;;6.00;3.73;;;7.30;99.90;;;;;;4963065;28;20445;-57
2024/03/05 10:11:01;;;;;;;5.27;3.80;;;7.30;99.90;;;;;;4966533;28;20429;-55
2024/03/05 10:13:31;;;;;;;4.03;3.33;;;7.30;99.90;;;;;;4963992;28;20916;-58
2024/03/05 10:16:16;;;;;;;4.33;3.60;;;7.30;99.90;;;;;;4962365;28;20433;-56
2024/03/05 10:18:42;;;;;;;6.63;3.03;;;7.30;99.90;;;;;;4961647;28;20465;-60
2024/03/05 10:21:17;;;;;;;3.90;2.87;;;7.30;99.90;;;;;;4964610;28;20498;-57
2024/03/05 10:23:43;;;;;;;2.63;2.43;;;7.30;99.90;;;;;;4960952;28;20431;-54
2024/03/05 10:26:30;;;;;;;3.60;2.17;;;7.30;99.90;;;;;;4970768;28;21076;-58
2024/03/05 10:29:04;;;;;;;3.23;2.53;;;7.30;99.90;;;;;;4965705;28;20417;-59
2024/03/05 10:31:29;;;;;;;3.23;2.50;;;7.40;99.90;;;;;;4961885;28;20440;-56
2024/03/05 10:33:56;;;;;;;3.43;1.90;;;7.40;99.90;;;;;;4965435;28;20425;-56
2024/03/05 10:36:28;;;;;;;3.20;2.33;;;7.40;96.90;;;;;;4969836;28;20583;-58
2024/03/05 10:38:54;;;;;;;2.43;2.23;;;7.30;97.00;;;;;;4966792;28;20694;-59
2024/03/05 10:41:27;;;;;;;2.30;2.10;;;7.40;98.90;;;;;;4971559;28;20795;-57
2024/03/05 10:43:54;;;;;;;3.40;2.03;;;7.30;98.80;;;;;;4966663;28;20433;-57
2024/03/05 10:46:22;;;;;;;3.47;2.53;;;7.30;95.20;;;;;;4971649;28;20516;-58
2024/03/05 10:48:50;;;;;;;3.73;2.67;;;7.30;95.00;;;;;;4963705;28;20436;-58
2024/03/05 10:51:20;;;;;;;2.50;2.30;;;7.30;94.70;;;;;;4965242;28;21108;-54
2024/03/05 10:53:49;;;;;;;2.50;2.30;;;7.30;94.70;;;;;;4966428;28;20429;-54
2024/03/05 10:56:14;;;;;;;2.87;2.30;;;7.30;94.50;;;;;;4967062;28;20425;-61
2024/03/05 11:01:14;;;;;;;1.97;1.83;;;7.40;93.50;;;;;;4967160;28;20174;-54
2024/03/05 11:03:41;;;;;;;3.10;1.73;;;7.40;92.70;;;;;;4971225;28;20417;-59
2024/03/05 11:06:07;;;;;;;2.03;1.93;;;7.40;91.90;;;;;;4969556;28;20409;-57
2024/03/05 11:08:36;;;;;;;1.93;1.83;;;7.40;92.20;;;;;;4966434;28;20441;-60
2024/03/05 11:11:09;;;;;;;2.00;1.90;;;7.40;91.20;;;;;;4969986;28;20840;-58
2024/03/05 11:13:38;;;;;;;1.97;1.80;;;7.40;90.60;;;;;;4966529;28;20444;-58
2024/03/05 11:16:04;;;;;;;1.90;1.80;;;7.40;89.50;;;;;;4970250;28;20463;-57
2024/03/05 11:18:31;;;;;;;4.73;2.47;;;7.40;89.20;;;;;;4967084;28;20465;-55
2024/03/05 11:21:00;;;;;;;2.00;1.90;;;7.40;88.20;;;;;;4967553;28;20607;-56
2024/03/05 11:23:29;;;;;;;2.30;2.10;;;7.40;90.50;;;;;;4966859;28;20441;-56
2024/03/05 11:26:00;;;;;;;3.60;2.20;;;7.40;91.30;;;;;;4969624;28;20433;-57
2024/03/05 11:28:26;;;;;;;2.87;2.60;;;7.50;92.60;;;;;;4966173;28;20944;-57
2024/03/05 11:31:17;;;;;;;2.10;1.90;;;7.50;92.10;;;;;;4964139;28;20433;-58
2024/03/05 11:33:43;;;;;;;3.70;3.10;;;7.50;91.10;;;;;;4963610;28;20177;-58
2024/03/05 11:36:20;;;;;;;2.43;2.00;;;7.50;88.10;;;;;;4962567;28;20433;-55
2024/03/05 11:39:04;;;;;;;3.03;1.83;;;7.60;91.50;;;;;;4964463;28;21007;-58
2024/03/05 11:41:32;;;;;;;1.70;1.60;;;7.60;90.30;;;;;;4966451;28;20473;-56
2024/03/05 11:43:58;;;;;;;1.77;1.67;;;7.70;89.60;;;;;;4963102;28;20437;-54
2024/03/05 11:46:41;;;;;;;2.00;1.60;;;7.70;84.40;;;;;;4960769;28;21312;-55
2024/03/05 11:49:09;;;;;;;2.67;2.20;;;7.70;86.30;;;;;;4963071;28;20313;-56
2024/03/05 11:51:35;;;;;;;3.00;2.40;;;7.80;87.30;;;;;;4957328;28;20409;-56
2024/03/05 11:54:00;;;;;;;1.40;1.30;;;7.90;88.30;;;;;;4961337;28;20448;-55
2024/03/05 11:56:26;;;;;;;1.40;1.30;;;8.10;87.20;;;;;;4961980;28;20429;-61
2024/03/05 11:58:54;;;;;;;3.53;1.43;;;8.30;86.00;;;;;;4958283;28;20281;-58
2024/03/05 12:01:23;;;;;;;1.50;1.40;;;8.50;84.40;;;;;;4962339;28;20273;-57
2024/03/05 12:04:05;;;;;;;1.13;1.10;;;8.60;83.40;;;;;;4959811;28;20459;-56
2024/03/05 12:06:31;;;;;;;1.30;1.20;;;8.60;81.10;;;;;;4962345;28;21056;-56
2024/03/05 12:09:09;;;;;;;1.57;1.47;;;8.60;79.70;;;;;;4963680;28;20516;-57
2024/03/05 12:11:35;;;;;;;1.10;1.10;;;8.60;77.10;;;;;;4964994;28;20409;-58
2024/03/05 12:14:10;;;;;;;2.10;1.40;;;8.50;75.20;;;;;;4962621;28;20461;-58
2024/03/05 12:16:37;;;;;;;1.60;1.50;;;8.40;74.00;;;;;;4960695;28;20448;-58
2024/03/05 12:19:02;;;;;;;1.47;1.37;;;8.30;73.70;;;;;;4963498;28;20465;-55
2024/03/05 12:21:28;;;;;;;1.40;1.30;;;8.30;75.90;;;;;;4962470;28;20425;-54
2024/03/05 12:23:54;;;;;;;1.57;1.23;;;8.30;76.60;;;;;;4950549;28;20194;-59
2024/03/05 12:26:20;;;;;;;1.30;1.20;;;8.30;74.10;;;;;;4957826;28;20458;-59
2024/03/05 12:28:49;;;;;;;1.20;1.10;;;8.30;73.60;;;;;;4958753;28;20186;-54
2024/03/05 12:31:15;;;;;;;1.00;1.00;;;8.50;72.20;;;;;;4958281;28;20445;-54
2024/03/05 12:33:40;;;;;;;1.30;1.20;;;8.80;71.20;;;;;;4961701;28;20436;-54
2024/03/05 12:36:07;;;;;;;1.10;1.10;;;9.20;70.70;;;;;;4962248;28;20426;-55
2024/03/05 12:38:33;;;;;;;1.67;1.20;;;9.40;68.80;;;;;;4953285;28;20194;-58
2024/03/05 12:41:01;;;;;;;1.10;1.10;;;9.50;68.30;;;;;;4963781;28;20924;-55
2024/03/05 12:43:28;;;;;;;1.10;1.10;;;9.60;68.10;;;;;;4957389;28;20522;-56
2024/03/05 12:46:02;;;;;;;1.10;1.00;;;9.70;68.80;;;;;;4963331;28;20417;-55
2024/03/05 12:48:31;;;;;;;2.73;1.30;;;9.90;69.10;;;;;;4964504;28;20528;-54
2024/03/05 12:50:59;;;;;;;1.10;1.10;;;10.10;67.60;;;;;;4974548;28;20429;-55
2024/03/05 12:53:24;;;;;;;1.20;1.10;;;10.30;67.40;;;;;;4966802;28;20507;-56